Time;durP1;ratioP1;P1;durP2;ratioP2;P2;SDS_P1;SDS_P2;PMS_P1;PMS_P2;Temp;Humidity;BMP_temperature;BMP_pressure;BME280_temperature;BME280_humidity;BME280_pressure;Samples;Min_cycle;Max_cycle;Signal;HPM_P1;HPM_P2
2023/04/30 00:00:08;;;;;;;;;;;10.70;99.90;;;;;;5052451;28;19923;-86
2023/04/30 00:02:34;;;;;;;;;;;10.70;99.90;;;;;;5053906;28;19962;-86
2023/04/30 00:04:59;;;;;;;;;;;10.60;99.90;;;;;;5053821;28;19924;-86
2023/04/30 00:07:25;;;;;;;;;;;10.50;99.90;;;;;;5053448;28;19948;-86
2023/04/30 00:09:51;;;;;;;;;;;10.60;99.90;;;;;;5053565;28;19915;-86
2023/04/30 00:12:16;;;;;;;;;;;10.50;99.90;;;;;;5053273;28;20333;-86
2023/04/30 00:14:42;;;;;;;;;;;10.40;99.90;;;;;;5053342;28;19905;-86
2023/04/30 00:17:07;;;;;;;;;;;10.40;99.90;;;;;;5054652;28;19999;-86
2023/04/30 00:19:33;;;;;;;;;;;10.40;99.90;;;;;;5053631;28;19905;-86
2023/04/30 00:22:00;;;;;;;;;;;10.40;99.90;;;;;;5053458;28;19912;-86
2023/04/30 00:24:26;;;;;;;;;;;10.30;99.90;;;;;;5053585;28;19913;-86
2023/04/30 00:26:52;;;;;;;;;;;10.20;99.90;;;;;;5053315;28;19909;-86
2023/04/30 00:29:17;;;;;;;;;;;10.20;99.90;;;;;;5053326;28;20352;-86
2023/04/30 00:31:43;;;;;;;;;;;10.10;99.90;;;;;;5054459;28;19904;-86
2023/04/30 00:34:08;;;;;;;;;;;10.10;99.90;;;;;;5052898;28;19913;-87
2023/04/30 00:36:34;;;;;;;;;;;10.10;99.90;;;;;;5054304;28;19958;-86
2023/04/30 00:38:59;;;;;;;;;;;10.10;99.90;;;;;;5053099;28;20385;-86
2023/04/30 00:41:26;;;;;;;;;;;10.10;99.90;;;;;;5053244;28;19908;-85
2023/04/30 00:43:51;;;;;;;;;;;10.10;99.90;;;;;;5052863;28;19908;-86
2023/04/30 00:46:17;;;;;;;;;;;10.00;99.90;;;;;;5052739;28;19913;-86
2023/04/30 00:48:42;;;;;;;;;;;10.00;99.90;;;;;;5052721;28;19928;-86
2023/04/30 00:51:08;;;;;;;;;;;10.10;99.90;;;;;;5054009;28;19962;-85
2023/04/30 00:53:33;;;;;;;;;;;10.00;99.90;;;;;;5052964;28;19962;-85
2023/04/30 00:55:59;;;;;;;;;;;9.90;99.90;;;;;;5052764;28;19905;-86
2023/04/30 00:58:25;;;;;;;;;;;9.90;99.90;;;;;;5052585;28;19905;-86
2023/04/30 01:00:51;;;;;;;;;;;9.80;99.90;;;;;;5050792;28;20392;-86
2023/04/30 01:03:16;;;;;;;;;;;9.90;99.90;;;;;;5051623;28;20432;-85
2023/04/30 01:05:42;;;;;;;;;;;9.70;99.90;;;;;;5052885;28;19920;-85
2023/04/30 01:08:08;;;;;;;;;;;9.60;99.90;;;;;;5052385;28;20273;-85
2023/04/30 01:10:54;;;;;;;;;;;9.60;99.90;;;;;;5051964;28;19911;-85
2023/04/30 01:13:24;;;;;;;;;;;9.60;99.90;;;;;;5051214;28;19927;-84
2023/04/30 01:16:10;;;;;;;;;;;9.50;99.90;;;;;;5052757;28;19904;-86
2023/04/30 01:18:40;;;;;;;;;;;9.50;99.90;;;;;;5051846;28;20007;-86
2023/04/30 01:21:06;;;;;;;;;;;9.50;99.90;;;;;;5052451;28;19908;-87
2023/04/30 01:23:48;;;;;;;;;;;9.50;99.90;;;;;;5052483;28;19920;-85
2023/04/30 01:26:29;;;;;;;;;;;9.40;99.90;;;;;;5051934;28;19920;-86
2023/04/30 01:28:56;;;;;;;;;;;9.40;99.90;;;;;;5051986;28;19927;-86
2023/04/30 01:31:22;;;;;;;;;;;9.40;99.90;;;;;;5051650;28;20300;-86
2023/04/30 01:33:48;;;;;;;;;;;9.40;99.90;;;;;;5052263;28;19904;-86
2023/04/30 01:36:13;;;;;;;;;;;9.40;99.90;;;;;;5052180;28;19928;-84
2023/04/30 01:38:42;;;;;;;;;;;9.30;99.90;;;;;;5052070;28;20297;-86
2023/04/30 01:41:07;;;;;;;;;;;9.30;99.90;;;;;;5051912;28;19995;-85
2023/04/30 01:43:38;;;;;;;;;;;9.30;99.90;;;;;;5053204;28;19955;-86
2023/04/30 01:46:16;;;;;;;;;;;9.30;99.90;;;;;;5051846;28;19924;-85
2023/04/30 01:48:54;;;;;;;;;;;9.30;99.90;;;;;;5051875;28;19904;-86
2023/04/30 01:51:27;;;;;;;;;;;9.30;99.90;;;;;;5051848;28;19909;-86
2023/04/30 01:53:55;;;;;;;;;;;9.30;99.90;;;;;;5051643;28;19909;-84
2023/04/30 01:56:27;;;;;;;;;;;9.30;99.90;;;;;;5053270;28;19965;-85
2023/04/30 01:58:53;;;;;;;;;;;9.30;99.90;;;;;;5052633;28;20400;-85
2023/04/30 02:01:29;;;;;;;;;;;9.20;99.90;;;;;;5052568;28;19913;-86
2023/04/30 02:03:55;;;;;;;;;;;9.20;99.90;;;;;;5052440;28;19958;-86
2023/04/30 02:06:21;;;;;;;;;;;9.20;99.90;;;;;;5051762;28;19912;-85
2023/04/30 02:08:46;;;;;;;;;;;9.10;99.90;;;;;;5051886;28;19905;-86
2023/04/30 02:11:12;;;;;;;;;;;9.10;99.90;;;;;;5051723;28;19947;-86
2023/04/30 02:13:38;;;;;;;;;;;9.10;99.90;;;;;;5051633;28;19971;-86
2023/04/30 02:16:04;;;;;;;;;;;9.10;99.90;;;;;;5051658;28;19906;-86
2023/04/30 02:18:29;;;;;;;;;;;9.10;99.90;;;;;;5051513;28;19912;-86
2023/04/30 02:20:55;;;;;;;;;;;9.10;99.90;;;;;;5052857;28;19999;-87
2023/04/30 02:23:20;;;;;;;;;;;9.10;99.90;;;;;;5052571;28;19909;-86
2023/04/30 02:25:46;;;;;;;;;;;9.10;99.90;;;;;;5055773;28;19913;-86
2023/04/30 02:28:11;;;;;;;;;;;9.10;99.90;;;;;;5055590;28;19912;-85
2023/04/30 02:30:37;;;;;;;;;;;9.10;99.90;;;;;;5054984;28;19923;-85
2023/04/30 02:33:04;;;;;;;;;;;9.20;99.90;;;;;;5055475;28;19986;-86
2023/04/30 02:35:29;;;;;;;;;;;9.20;99.90;;;;;;5055137;28;20305;-86
2023/04/30 02:37:55;;;;;;;;;;;9.30;99.90;;;;;;5055355;28;19909;-86
2023/04/30 02:40:20;;;;;;;;;;;9.40;99.90;;;;;;5055313;28;19909;-85
2023/04/30 02:42:46;;;;;;;;;;;9.40;99.90;;;;;;5055127;28;19911;-86
2023/04/30 02:45:11;;;;;;;;;;;9.40;99.90;;;;;;5054792;28;19973;-86
2023/04/30 02:47:37;;;;;;;;;;;9.50;99.90;;;;;;5054944;28;19904;-85
2023/04/30 02:50:02;;;;;;;;;;;9.50;99.90;;;;;;5056147;28;20003;-85
2023/04/30 02:52:28;;;;;;;;;;;9.50;99.90;;;;;;5054591;28;19904;-86
2023/04/30 02:54:53;;;;;;;;;;;9.50;99.90;;;;;;5055141;28;19911;-86
2023/04/30 02:57:19;;;;;;;;;;;9.60;99.90;;;;;;5055803;28;20007;-86
2023/04/30 02:59:44;;;;;;;;;;;9.60;99.90;;;;;;5054396;28;19996;-85
2023/04/30 03:02:11;;;;;;;;;;;9.60;99.90;;;;;;5054369;28;20369;-86
2023/04/30 03:04:36;;;;;;;;;;;9.60;99.90;;;;;;5054735;28;19912;-86
2023/04/30 03:07:02;;;;;;;;;;;9.60;99.90;;;;;;5055915;28;19959;-86
2023/04/30 03:09:31;;;;;;;;;;;9.60;99.90;;;;;;5054425;28;20347;-86
2023/04/30 03:11:56;;;;;;;;;;;9.70;99.90;;;;;;5055916;28;19976;-85
2023/04/30 03:14:22;;;;;;;;;;;9.70;99.90;;;;;;5054969;28;19963;-85
2023/04/30 03:16:48;;;;;;;;;;;9.70;99.90;;;;;;5054128;28;19913;-85
2023/04/30 03:19:13;;;;;;;;;;;9.70;99.90;;;;;;5052245;28;20331;-86
2023/04/30 03:21:39;;;;;;;;;;;9.80;99.90;;;;;;5053852;28;19954;-86
2023/04/30 03:24:05;;;;;;;;;;;9.90;99.90;;;;;;5054782;28;19905;-86
2023/04/30 03:26:31;;;;;;;;;;;10.00;99.90;;;;;;5054447;28;19927;-85
2023/04/30 03:28:56;;;;;;;;;;;10.20;99.90;;;;;;5055874;28;20385;-86
2023/04/30 03:31:22;;;;;;;;;;;10.40;99.90;;;;;;5054307;28;20003;-86
2023/04/30 03:33:47;;;;;;;;;;;10.50;99.90;;;;;;5054235;28;20475;-86
2023/04/30 03:36:13;;;;;;;;;;;10.70;99.90;;;;;;5054057;28;19928;-85
2023/04/30 03:38:40;;;;;;;;;;;10.90;99.90;;;;;;5053642;28;19909;-86
2023/04/30 03:41:06;;;;;;;;;;;11.00;99.90;;;;;;5054099;28;20002;-86
2023/04/30 03:43:32;;;;;;;;;;;11.20;99.90;;;;;;5054171;28;19909;-86
2023/04/30 03:45:57;;;;;;;;;;;11.30;99.90;;;;;;5053954;28;19920;-86
2023/04/30 03:48:23;;;;;;;;;;;11.40;99.90;;;;;;5053498;28;19904;-85
2023/04/30 03:50:49;;;;;;;;;;;11.50;99.90;;;;;;5056011;28;19908;-86
2023/04/30 03:53:14;;;;;;;;;;;11.50;99.90;;;;;;5054190;28;19905;-85
2023/04/30 03:55:40;;;;;;;;;;;11.60;99.90;;;;;;5054176;28;19999;-86
2023/04/30 03:58:06;;;;;;;;;;;11.70;99.90;;;;;;5053724;28;20028;-85
2023/04/30 04:00:31;;;;;;;;;;;11.70;99.90;;;;;;5053490;28;19927;-86
2023/04/30 04:02:58;;;;;;;;;;;11.70;99.90;;;;;;5053559;28;20352;-85
2023/04/30 04:05:23;;;;;;;;;;;11.60;99.90;;;;;;5053226;28;19916;-86
2023/04/30 04:07:49;;;;;;;;;;;11.50;99.90;;;;;;5053561;28;19912;-85
2023/04/30 04:10:14;;;;;;;;;;;11.50;99.90;;;;;;5053015;28;19927;-85
2023/04/30 04:12:40;;;;;;;;;;;11.50;99.90;;;;;;5053220;28;19904;-85
2023/04/30 04:15:06;;;;;;;;;;;11.50;99.90;;;;;;5053271;28;19905;-86
2023/04/30 04:17:31;;;;;;;;;;;11.60;99.90;;;;;;5052682;28;19915;-86
2023/04/30 04:19:58;;;;;;;;;;;11.60;99.90;;;;;;5053215;28;19955;-86
2023/04/30 04:22:23;;;;;;;;;;;11.60;99.90;;;;;;5053585;28;19912;-86
2023/04/30 04:24:50;;;;;;;;;;;11.60;99.90;;;;;;5053064;28;19913;-85
2023/04/30 04:27:15;;;;;;;;;;;11.70;99.90;;;;;;5053137;28;19944;-86
2023/04/30 04:29:41;;;;;;;;;;;11.80;99.90;;;;;;5052948;28;19962;-85
2023/04/30 04:32:06;;;;;;;;;;;11.90;99.90;;;;;;5052691;28;19912;-85
2023/04/30 04:34:32;;;;;;;;;;;12.00;99.90;;;;;;5053008;28;20393;-85
2023/04/30 04:36:57;;;;;;;;;;;12.20;99.90;;;;;;5052841;28;19911;-86
2023/04/30 04:39:23;;;;;;;;;;;12.30;99.90;;;;;;5052947;28;19966;-86
2023/04/30 04:41:48;;;;;;;;;;;12.40;99.90;;;;;;5053038;28;19904;-85
2023/04/30 04:44:14;;;;;;;;;;;12.50;99.90;;;;;;5052671;28;19909;-85
2023/04/30 04:46:43;;;;;;;;;;;12.70;99.90;;;;;;5052187;28;19912;-86
2023/04/30 04:49:08;;;;;;;;;;;13.00;99.90;;;;;;5052292;28;19951;-86
2023/04/30 04:51:34;;;;;;;;;;;13.30;99.90;;;;;;5052790;28;19905;-86
2023/04/30 04:54:00;;;;;;;;;;;13.60;99.90;;;;;;5052550;28;20003;-86
2023/04/30 04:56:25;;;;;;;;;;;13.80;99.90;;;;;;5052608;28;19904;-85
2023/04/30 04:58:51;;;;;;;;;;;13.80;99.90;;;;;;5052593;28;19909;-86
2023/04/30 05:01:17;;;;;;;;;;;13.80;99.90;;;;;;5052579;28;19917;-86
2023/04/30 05:03:42;;;;;;;;;;;14.00;99.90;;;;;;5052443;28;20404;-86
2023/04/30 05:06:08;;;;;;;;;;;14.10;99.90;;;;;;5053470;28;19947;-86
2023/04/30 05:08:33;;;;;;;;;;;14.10;99.90;;;;;;5052451;28;20004;-86
2023/04/30 05:10:59;;;;;;;;;;;14.10;99.90;;;;;;5053755;28;20421;-86
2023/04/30 05:13:25;;;;;;;;;;;14.10;99.90;;;;;;5052312;28;20381;-86
2023/04/30 05:15:51;;;;;;;;;;;14.10;99.90;;;;;;5052435;28;19905;-86
2023/04/30 05:18:16;;;;;;;;;;;14.00;99.90;;;;;;5051964;28;19911;-86
2023/04/30 05:20:42;;;;;;;;;;;14.10;99.90;;;;;;5052056;28;20007;-87
2023/04/30 05:23:08;;;;;;;;;;;14.10;99.90;;;;;;5052646;28;19904;-87
2023/04/30 05:25:34;;;;;;;;;;;14.20;99.90;;;;;;5052260;28;19917;-86
2023/04/30 05:27:59;;;;;;;;;;;14.30;99.90;;;;;;5052062;28;19995;-85
2023/04/30 05:30:25;;;;;;;;;;;14.40;99.90;;;;;;5052460;28;19936;-86
2023/04/30 05:32:51;;;;;;;;;;;14.90;99.90;;;;;;5052055;28;19905;-86
2023/04/30 05:35:17;;;;;;;;;;;15.60;99.90;;;;;;5049817;28;20373;-87
2023/04/30 05:37:42;;;;;;;;;;;16.70;99.90;;;;;;5049253;28;19909;-86
2023/04/30 05:40:08;;;;;;;;;;;17.70;94.30;;;;;;5051059;28;19912;-86
2023/04/30 05:42:35;;;;;;;;;;;18.60;91.00;;;;;;5051065;28;19962;-86
2023/04/30 05:45:01;;;;;;;;;;;19.40;83.30;;;;;;5051965;28;19913;-88
2023/04/30 05:47:26;;;;;;;;;;;20.10;74.50;;;;;;5053673;28;19905;-85
2023/04/30 05:49:52;;;;;;;;;;;20.70;70.40;;;;;;5050391;28;19908;-87
2023/04/30 05:52:17;;;;;;;;;;;21.10;67.20;;;;;;5051791;28;20042;-87
2023/04/30 05:54:43;;;;;;;;;;;21.50;64.40;;;;;;5051615;28;19908;-87
2023/04/30 05:57:08;;;;;;;;;;;21.80;61.90;;;;;;5052603;28;19904;-85
2023/04/30 05:59:34;;;;;;;;;;;22.50;60.80;;;;;;5055753;28;20404;-86
2023/04/30 06:01:59;;;;;;;;;;;23.00;57.10;;;;;;5055821;28;19908;-86
2023/04/30 06:04:25;;;;;;;;;;;23.50;54.50;;;;;;5055698;28;19905;-86
2023/04/30 06:06:50;;;;;;;;;;;24.10;52.40;;;;;;5055191;28;19995;-86
2023/04/30 06:09:16;;;;;;;;;;;24.20;50.20;;;;;;5053795;28;19915;-84
2023/04/30 06:11:44;;;;;;;;;;;24.00;50.10;;;;;;5056242;28;19909;-85
2023/04/30 06:14:09;;;;;;;;;;;24.30;49.60;;;;;;5055478;28;19908;-85
2023/04/30 06:16:35;;;;;;;;;;;24.90;47.50;;;;;;5053645;28;20331;-86
2023/04/30 06:19:00;;;;;;;;;;;25.10;47.60;;;;;;5055464;28;19912;-87
2023/04/30 06:21:26;;;;;;;;;;;25.60;45.70;;;;;;5054859;28;19915;-85
2023/04/30 06:23:51;;;;;;;;;;;26.20;44.30;;;;;;5053148;28;19935;-86
2023/04/30 06:26:20;;;;;;;;;;;26.50;43.10;;;;;;5053135;28;19924;-86
2023/04/30 06:28:46;;;;;;;;;;;26.80;41.80;;;;;;5053096;28;20028;-87
2023/04/30 06:31:11;;;;;;;;;;;26.70;40.60;;;;;;5054894;28;20365;-87
2023/04/30 06:33:37;;;;;;;;;;;26.80;40.60;;;;;;5053874;28;19944;-86
2023/04/30 06:36:02;;;;;;;;;;;26.90;39.70;;;;;;5053340;28;20400;-86
2023/04/30 06:38:28;;;;;;;;;;;27.10;39.00;;;;;;5052825;28;19943;-85
2023/04/30 06:40:53;;;;;;;;;;;27.10;39.00;;;;;;5054718;28;19911;-87
2023/04/30 06:43:19;;;;;;;;;;;27.30;38.60;;;;;;5054332;28;20361;-85
2023/04/30 06:45:45;;;;;;;;;;;27.30;38.10;;;;;;5054787;28;20289;-86
2023/04/30 06:48:10;;;;;;;;;;;27.20;37.50;;;;;;5054177;28;19909;-85
2023/04/30 06:50:43;;;;;;;;;;;27.40;38.40;;;;;;5053000;28;20224;-86
2023/04/30 06:53:10;;;;;;;;;;;27.20;37.90;;;;;;5054077;28;19912;-86
2023/04/30 06:55:35;;;;;;;;;;;27.20;37.90;;;;;;5053663;28;19947;-85
2023/04/30 06:58:01;;;;;;;;;;;27.00;37.80;;;;;;5052486;28;19997;-84
2023/04/30 07:00:27;;;;;;;;;;;27.10;38.50;;;;;;5052977;28;19968;-85
2023/04/30 07:02:52;;;;;;;;;;;27.40;38.10;;;;;;5054177;28;19911;-86
2023/04/30 07:05:18;;;;;;;;;;;27.40;38.20;;;;;;5054653;28;20015;-87
2023/04/30 07:07:43;;;;;;;;;;;27.30;36.20;;;;;;5054814;28;19904;-86
2023/04/30 07:10:09;;;;;;;;;;;27.20;36.10;;;;;;5052028;28;19951;-86
2023/04/30 07:12:35;;;;;;;;;;;26.80;37.10;;;;;;5053961;28;20348;-86
2023/04/30 07:15:00;;;;;;;;;;;27.00;36.20;;;;;;5053513;28;20354;-84
2023/04/30 07:17:26;;;;;;;;;;;26.90;38.10;;;;;;5053034;28;19905;-86
2023/04/30 07:19:51;;;;;;;;;;;27.10;37.10;;;;;;5053522;28;19940;-86
2023/04/30 07:22:17;;;;;;;;;;;27.40;37.40;;;;;;5052908;28;19905;-84
2023/04/30 07:24:42;;;;;;;;;;;27.50;37.20;;;;;;5052536;28;19967;-86
2023/04/30 07:27:08;;;;;;;;;;;27.80;37.30;;;;;;5053023;28;19959;-86
2023/04/30 07:29:34;;;;;;;;;;;28.20;36.40;;;;;;5052365;28;19905;-84
2023/04/30 07:31:59;;;;;;;;;;;28.40;36.20;;;;;;5055101;28;19966;-86
2023/04/30 07:34:25;;;;;;;;;;;28.40;34.10;;;;;;5054580;28;20379;-83
2023/04/30 07:36:51;;;;;;;;;;;28.10;34.10;;;;;;5052131;28;19911;-86
2023/04/30 07:39:16;;;;;;;;;;;27.50;36.20;;;;;;5053842;28;20387;-86
2023/04/30 07:41:42;;;;;;;;;;;27.20;36.60;;;;;;5053209;28;19912;-86
2023/04/30 07:44:07;;;;;;;;;;;26.80;35.90;;;;;;5053768;28;19912;-85
2023/04/30 07:46:33;;;;;;;;;;;26.50;36.90;;;;;;5053837;28;19919;-86
2023/04/30 07:48:59;;;;;;;;;;;26.30;36.60;;;;;;5053361;28;20407;-86
2023/04/30 07:51:25;;;;;;;;;;;26.30;37.80;;;;;;5051644;28;20403;-86
2023/04/30 07:53:52;;;;;;;;;;;26.60;37.10;;;;;;5051407;28;19912;-86
2023/04/30 07:56:17;;;;;;;;;;;26.80;36.80;;;;;;5051734;28;19909;-86
2023/04/30 07:58:43;;;;;;;;;;;26.80;36.10;;;;;;5051310;28;20399;-87
2023/04/30 08:01:08;;;;;;;;;;;26.80;35.30;;;;;;5051589;28;20003;-87
2023/04/30 08:03:35;;;;;;;;;;;26.70;36.00;;;;;;5052443;28;19908;-86
2023/04/30 08:06:01;;;;;;;;;;;27.20;34.80;;;;;;5053094;28;19912;-85
2023/04/30 08:08:26;;;;;;;;;;;27.40;34.60;;;;;;5053165;28;19909;-86
2023/04/30 08:10:52;;;;;;;;;;;27.70;33.50;;;;;;5053376;28;19913;-86
2023/04/30 08:13:19;;;;;;;;;;;27.20;32.80;;;;;;5053501;28;20369;-86
2023/04/30 08:15:45;;;;;;;;;;;26.90;33.10;;;;;;5053495;28;19905;-85
2023/04/30 08:18:10;;;;;;;;;;;26.30;33.70;;;;;;5053084;28;20054;-84
2023/04/30 08:20:36;;;;;;;;;;;25.90;35.30;;;;;;5052012;28;19952;-85
2023/04/30 08:23:01;;;;;;;;;;;25.90;36.60;;;;;;5051497;28;20337;-86
2023/04/30 08:25:27;;;;;;;;;;;26.30;36.70;;;;;;5051850;28;19916;-86
2023/04/30 08:27:52;;;;;;;;;;;26.10;35.50;;;;;;5053244;28;19904;-86
2023/04/30 08:30:18;;;;;;;;;;;25.40;36.60;;;;;;5051426;28;19987;-86
2023/04/30 08:32:43;;;;;;;;;;;25.10;37.70;;;;;;5051188;28;19916;-86
2023/04/30 08:35:09;;;;;;;;;;;25.30;37.20;;;;;;5052311;28;19916;-86
2023/04/30 08:37:35;;;;;;;;;;;25.50;35.60;;;;;;5051729;28;19908;-86
2023/04/30 08:40:00;;;;;;;;;;;25.80;35.20;;;;;;5051148;28;20349;-84
2023/04/30 08:42:34;;;;;;;;;;;26.00;35.80;;;;;;5052198;28;19916;-85
2023/04/30 08:45:00;;;;;;;;;;;26.20;35.60;;;;;;5053259;28;19913;-86
2023/04/30 08:47:26;;;;;;;;;;;26.30;35.20;;;;;;5053355;28;19905;-87
2023/04/30 08:49:52;;;;;;;;;;;26.30;36.40;;;;;;5053064;28;19908;-84
2023/04/30 08:52:18;;;;;;;;;;;26.40;35.50;;;;;;5052147;28;20024;-86
2023/04/30 08:54:43;;;;;;;;;;;26.80;35.50;;;;;;5051507;28;19912;-85
2023/04/30 08:57:09;;;;;;;;;;;27.40;33.30;;;;;;5051889;28;19909;-85
2023/04/30 08:59:35;;;;;;;;;;;27.70;32.60;;;;;;5050856;28;19964;-86
2023/04/30 09:02:00;;;;;;;;;;;27.20;33.10;;;;;;5053812;28;19943;-87
2023/04/30 09:04:26;;;;;;;;;;;27.60;34.40;;;;;;5051371;28;20511;-86
2023/04/30 09:06:57;;;;;;;;;;;27.80;33.50;;;;;;5051611;28;20063;-85
2023/04/30 09:09:27;;;;;;;;;;;28.40;34.00;;;;;;5050972;28;20318;-84
2023/04/30 09:11:55;;;;;;;;;;;28.30;30.80;;;;;;5051732;28;19911;-87
2023/04/30 09:14:27;;;;;;;;;;;26.60;32.40;;;;;;5052460;28;19960;-85
2023/04/30 09:16:53;;;;;;;;;;;25.10;34.00;;;;;;5051284;28;20047;-87
2023/04/30 09:19:25;;;;;;;;;;;24.30;36.60;;;;;;5050573;28;20003;-86
2023/04/30 09:21:51;;;;;;;;;;;24.00;37.40;;;;;;5052514;28;19920;-85
2023/04/30 09:24:16;;;;;;;;;;;23.60;37.20;;;;;;5052252;28;19905;-85
2023/04/30 09:26:42;;;;;;;;;;;23.10;38.70;;;;;;5051991;28;20495;-85
2023/04/30 09:29:09;;;;;;;;;;;22.70;39.50;;;;;;5052211;28;20417;-86
2023/04/30 09:31:38;;;;;;;;;;;22.50;40.80;;;;;;5051887;28;19905;-85
2023/04/30 09:34:05;;;;;;;;;;;22.10;41.10;;;;;;5050493;28;20281;-86
2023/04/30 09:36:30;;;;;;;;;;;21.80;40.30;;;;;;5052852;28;19904;-86
2023/04/30 09:39:04;;;;;;;;;;;21.50;41.20;;;;;;5051996;28;19920;-87
2023/04/30 09:41:30;;;;;;;;;;;21.40;42.80;;;;;;5054220;28;19905;-86
2023/04/30 09:43:56;;;;;;;;;;;21.20;42.50;;;;;;5051922;28;20427;-85
2023/04/30 09:46:28;;;;;;;;;;;21.20;43.20;;;;;;5051816;28;20380;-85
2023/04/30 09:49:01;;;;;;;;;;;21.20;43.20;;;;;;5052124;28;20293;-86
2023/04/30 09:51:27;;;;;;;;;;;21.10;43.50;;;;;;5052023;28;19905;-86
2023/04/30 09:53:53;;;;;;;;;;;21.10;44.70;;;;;;5053117;28;19995;-86
2023/04/30 09:56:20;;;;;;;;;;;21.40;45.10;;;;;;5051323;28;20024;-86
2023/04/30 09:58:48;;;;;;;;;;;21.60;43.60;;;;;;5051382;28;19905;-87
2023/04/30 10:01:15;;;;;;;;;;;21.50;43.50;;;;;;5051640;28;20025;-86
2023/04/30 10:03:41;;;;;;;;;;;21.40;44.30;;;;;;5050936;28;19905;-87
2023/04/30 10:06:07;;;;;;;;;;;21.10;44.70;;;;;;5051438;28;19923;-85
2023/04/30 10:08:37;;;;;;;;;;;20.80;44.00;;;;;;5050806;28;19908;-86
2023/04/30 10:11:03;;;;;;;;;;;20.60;45.30;;;;;;5049382;28;19962;-85
2023/04/30 10:13:37;;;;;;;;;;;20.40;47.10;;;;;;5051986;28;19987;-86
2023/04/30 10:16:23;;;;;;;;;;;20.60;46.50;;;;;;5051839;28;19915;-86
2023/04/30 10:18:50;;;;;;;;;;;20.80;45.90;;;;;;5051315;28;19904;-87
2023/04/30 10:21:16;;;;;;;;;;;20.90;45.80;;;;;;5050434;28;19916;-86
2023/04/30 10:23:43;;;;;;;;;;;21.00;45.30;;;;;;5049978;28;20407;-84
2023/04/30 10:26:11;;;;;;;;;;;21.10;46.00;;;;;;5049382;28;20389;-85
2023/04/30 10:28:37;;;;;;;;;;;21.20;46.40;;;;;;5051791;28;19912;-86
2023/04/30 10:31:09;;;;;;;;;;;21.30;46.40;;;;;;5051721;28;20407;-86
2023/04/30 10:33:35;;;;;;;;;;;21.10;45.50;;;;;;5051710;28;19912;-86
2023/04/30 10:36:03;;;;;;;;;;;20.90;45.90;;;;;;5051931;28;19905;-85
2023/04/30 10:38:29;;;;;;;;;;;20.70;46.00;;;;;;5051585;28;19909;-85
2023/04/30 10:41:00;;;;;;;;;;;20.50;46.90;;;;;;5051890;28;19932;-85
2023/04/30 10:43:26;;;;;;;;;;;20.50;47.40;;;;;;5051067;28;19909;-86
2023/04/30 10:45:52;;;;;;;;;;;20.30;52.00;;;;;;5055644;28;19916;-86
2023/04/30 10:48:24;;;;;;;;;;;20.00;53.40;;;;;;5055359;28;20270;-86
2023/04/30 10:50:58;;;;;;;;;;;19.60;56.30;;;;;;5055279;28;19956;-86
2023/04/30 10:53:26;;;;;;;;;;;19.10;59.50;;;;;;5053268;28;19909;-84
2023/04/30 10:55:53;;;;;;;;;;;18.60;68.20;;;;;;5054409;28;19913;-84
2023/04/30 10:58:26;;;;;;;;;;;18.20;83.70;;;;;;5054689;28;19909;-85
2023/04/30 11:01:00;;;;;;;;;;;17.70;99.90;;;;;;5054315;28;20452;-85
2023/04/30 11:03:27;;;;;;;;;;;17.30;99.90;;;;;;5053805;28;20251;-84
2023/04/30 11:05:52;;;;;;;;;;;16.70;99.90;;;;;;5054719;28;19924;-84
2023/04/30 11:08:20;;;;;;;;;;;16.30;99.90;;;;;;5054684;28;19905;-84
2023/04/30 11:11:02;;;;;;;;;;;16.20;99.90;;;;;;5054857;28;19912;-85
2023/04/30 11:13:28;;;;;;;;;;;16.20;99.90;;;;;;5054521;28;19909;-86
2023/04/30 11:15:53;;;;;;;;;;;16.20;99.90;;;;;;5054173;28;20047;-84
2023/04/30 11:18:19;;;;;;;;;;;16.00;99.90;;;;;;5054459;28;19940;-85
2023/04/30 11:20:50;;;;;;;;;;;15.80;99.90;;;;;;5054757;28;19990;-84
2023/04/30 11:23:16;;;;;;;;;;;15.60;99.90;;;;;;5054988;28;19911;-85
2023/04/30 11:25:42;;;;;;;;;;;15.40;99.90;;;;;;5052837;28;19916;-83
2023/04/30 11:28:30;;;;;;;;;;;15.20;99.90;;;;;;5054076;28;19912;-84
2023/04/30 11:30:56;;;;;;;;;;;14.90;99.90;;;;;;5054214;28;19912;-84
2023/04/30 11:33:22;;;;;;;;;;;14.50;99.90;;;;;;5054246;28;19928;-84
2023/04/30 11:35:52;;;;;;;;;;;14.30;99.90;;;;;;5054419;28;19905;-85
2023/04/30 11:38:26;;;;;;;;;;;14.10;99.90;;;;;;5054394;28;19987;-84
2023/04/30 11:40:53;;;;;;;;;;;14.00;99.90;;;;;;5054281;28;20030;-86
2023/04/30 11:43:29;;;;;;;;;;;14.00;99.90;;;;;;5054115;28;19904;-85
2023/04/30 11:46:07;;;;;;;;;;;14.20;99.90;;;;;;5054189;28;19939;-85
2023/04/30 11:48:36;;;;;;;;;;;14.30;99.90;;;;;;5054100;28;19904;-86
2023/04/30 11:51:25;;;;;;;;;;;14.40;99.90;;;;;;5054263;28;19909;-85
2023/04/30 11:53:51;;;;;;;;;;;14.50;99.90;;;;;;5053947;28;19905;-85
2023/04/30 11:56:21;;;;;;;;;;;14.70;99.90;;;;;;5053852;28;19931;-85
2023/04/30 11:58:47;;;;;;;;;;;14.80;99.90;;;;;;5053636;28;19904;-85
2023/04/30 12:01:13;;;;;;;;;;;14.90;99.90;;;;;;5053426;28;20011;-85
2023/04/30 12:03:40;;;;;;;;;;;15.00;99.90;;;;;;5053615;28;20266;-85
2023/04/30 12:06:08;;;;;;;;;;;15.10;99.90;;;;;;5054027;28;19912;-85
2023/04/30 12:08:34;;;;;;;;;;;15.20;99.90;;;;;;5053400;28;19911;-85
2023/04/30 12:11:00;;;;;;;;;;;15.30;99.90;;;;;;5053792;28;19904;-86
2023/04/30 12:13:25;;;;;;;;;;;15.40;99.90;;;;;;5053707;28;19906;-86
2023/04/30 12:15:58;;;;;;;;;;;15.60;99.90;;;;;;5053916;28;19912;-86
2023/04/30 12:18:24;;;;;;;;;;;15.70;99.90;;;;;;5053488;28;19911;-84
2023/04/30 12:20:50;;;;;;;;;;;15.90;99.90;;;;;;5053765;28;20035;-86
2023/04/30 12:23:16;;;;;;;;;;;16.10;99.90;;;;;;5053664;28;19966;-85
2023/04/30 12:25:42;;;;;;;;;;;16.20;99.90;;;;;;5052220;28;19921;-85
2023/04/30 12:28:08;;;;;;;;;;;16.30;99.90;;;;;;5050762;28;19904;-86
2023/04/30 12:30:34;;;;;;;;;;;16.50;99.90;;;;;;5052144;28;19904;-86
2023/04/30 12:33:02;;;;;;;;;;;16.70;99.90;;;;;;5054450;28;20094;-83
2023/04/30 12:35:28;;;;;;;;;;;16.90;99.90;;;;;;5053004;28;19904;-84
2023/04/30 12:38:01;;;;;;;;;;;17.00;99.90;;;;;;5052951;28;20324;-85
2023/04/30 12:40:26;;;;;;;;;;;17.10;99.90;;;;;;5053575;28;20003;-85
2023/04/30 12:43:02;;;;;;;;;;;17.30;99.90;;;;;;5052764;28;20012;-85
2023/04/30 12:45:44;;;;;;;;;;;17.60;99.90;;;;;;5052823;28;19912;-83
2023/04/30 12:48:10;;;;;;;;;;;17.90;99.90;;;;;;5051088;28;20373;-84
2023/04/30 12:50:36;;;;;;;;;;;18.20;99.90;;;;;;5052817;28;19912;-84
2023/04/30 12:53:02;;;;;;;;;;;18.40;99.90;;;;;;5052699;28;19911;-84
2023/04/30 12:55:28;;;;;;;;;;;18.50;99.90;;;;;;5052657;28;19943;-84
2023/04/30 12:58:05;;;;;;;;;;;18.50;99.90;;;;;;5051661;28;19956;-84
2023/04/30 13:00:42;;;;;;;;;;;18.60;99.90;;;;;;5053180;28;19921;-84
2023/04/30 13:03:08;;;;;;;;;;;18.50;99.90;;;;;;5052664;28;19910;-84
2023/04/30 13:05:34;;;;;;;;;;;18.50;99.90;;;;;;5052232;28;19920;-84
2023/04/30 13:08:04;;;;;;;;;;;18.60;99.90;;;;;;5051871;28;19931;-83
2023/04/30 13:10:30;;;;;;;;;;;18.60;99.70;;;;;;5053104;28;19913;-84
2023/04/30 13:12:56;;;;;;;;;;;18.60;99.90;;;;;;5051759;28;19915;-84
2023/04/30 13:15:21;;;;;;;;;;;18.50;99.10;;;;;;5050527;28;19909;-82
2023/04/30 13:17:47;;;;;;;;;;;18.40;99.90;;;;;;5051633;28;20385;-84
2023/04/30 13:20:14;;;;;;;;;;;18.50;99.90;;;;;;5051845;28;20335;-84
2023/04/30 13:22:39;;;;;;;;;;;18.50;99.90;;;;;;5051708;28;20281;-84
2023/04/30 13:25:05;;;;;;;;;;;18.60;99.90;;;;;;5051538;28;19920;-84
2023/04/30 13:27:31;;;;;;;;;;;18.60;99.90;;;;;;5052083;28;19912;-84
2023/04/30 13:29:56;;;;;;;;;;;18.40;99.90;;;;;;5052370;28;20337;-84
2023/04/30 13:32:22;;;;;;;;;;;18.30;99.90;;;;;;5052784;28;20333;-84
2023/04/30 13:34:48;;;;;;;;;;;18.20;99.90;;;;;;5052266;28;19956;-83
2023/04/30 13:37:13;;;;;;;;;;;18.10;99.90;;;;;;5052362;28;19911;-84
2023/04/30 13:39:39;;;;;;;;;;;17.90;99.90;;;;;;5052664;28;19905;-84
2023/04/30 13:42:04;;;;;;;;;;;17.90;99.90;;;;;;5051407;28;19908;-84
2023/04/30 13:44:32;;;;;;;;;;;17.90;99.90;;;;;;5051188;28;19916;-84
2023/04/30 13:46:58;;;;;;;;;;;17.80;99.90;;;;;;5051575;28;19916;-84
2023/04/30 13:49:23;;;;;;;;;;;17.80;99.90;;;;;;5051232;28;20369;-83
2023/04/30 13:51:49;;;;;;;;;;;17.70;99.90;;;;;;5049441;28;19904;-83
2023/04/30 13:54:15;;;;;;;;;;;17.60;99.90;;;;;;5050379;28;19908;-83
2023/04/30 13:56:40;;;;;;;;;;;17.60;99.90;;;;;;5050553;28;19935;-84
2023/04/30 13:59:06;;;;;;;;;;;17.70;99.90;;;;;;5051080;28;19927;-84
2023/04/30 14:01:33;;;;;;;;;;;17.70;99.90;;;;;;5051234;28;19958;-83
2023/04/30 14:03:58;;;;;;;;;;;17.60;99.90;;;;;;5051412;28;20596;-83
2023/04/30 14:06:24;;;;;;;;;;;17.50;99.90;;;;;;5051290;28;20043;-83
2023/04/30 14:08:49;;;;;;;;;;;17.60;99.90;;;;;;5052369;28;20278;-84
2023/04/30 14:11:15;;;;;;;;;;;17.60;99.90;;;;;;5052284;28;20392;-83
2023/04/30 14:13:41;;;;;;;;;;;17.70;99.90;;;;;;5049718;28;19915;-83
2023/04/30 14:16:06;;;;;;;;;;;17.80;98.90;;;;;;5051444;28;20369;-84